Home > Products > Valid Products > TAF

000
FTUS43 KDMX 070207 AAA
TAFDSM
TAF AMD
KDSM 070207Z 0702/0724 36009KT 3SM HZ FEW050 BKN150
      TEMPO 0702/0705 2SM HZ BKN035
     FM071400 03009KT P6SM SKC=



000
FTUS43 KDMX 070207 AAA
TAFMCW
TAF AMD
KMCW 070207Z 0702/0724 35009KT 3SM HZ SKC
      TEMPO 0702/0704 2SM HZ BKN035
     FM071400 01010KT 6SM HZ SKC=



000
FTUS43 KDMX 070207 AAA
TAFALO
TAF AMD
KALO 070207Z 0702/0724 34010KT 3SM HZ FEW050
      TEMPO 0702/0705 2SM HZ BKN035
     FM071400 01009KT P6SM SKC=



000
FTUS43 KDMX 070207 AAA
TAFDSM
TAF AMD
KDSM 070207Z 0702/0724 36009KT 3SM HZ FEW050 BKN150
      TEMPO 0702/0705 2SM HZ BKN035
     FM071400 03009KT P6SM SKC=



000
FTUS43 KDMX 070207 AAA
TAFOTM
TAF AMD
KOTM 070207Z 0702/0724 33009KT 6SM HZ FEW020 BKN040 OVC150
      TEMPO 0702/0704 3SM HZ BKN025
     FM070400 34009KT 3SM HZ FEW030 SCT060 BKN150
     FM071400 02008KT P6SM SKC=



000
FTUS43 KDMX 070207 AAA
TAFALO
TAF AMD
KALO 070207Z 0702/0724 34010KT 3SM HZ FEW050
      TEMPO 0702/0705 2SM HZ BKN035
     FM071400 01009KT P6SM SKC=



000
FTUS43 KDMX 070207 AAA
TAFOTM
TAF AMD
KOTM 070207Z 0702/0724 33009KT 6SM HZ FEW020 BKN040 OVC150
      TEMPO 0702/0704 3SM HZ BKN025
     FM070400 34009KT 3SM HZ FEW030 SCT060 BKN150
     FM071400 02008KT P6SM SKC=



000
FTUS43 KDMX 070207 AAA
TAFFOD
TAF AMD
KFOD 070207Z 0702/0724 36007KT 3SM HZ SKC
      TEMPO 0702/0704 2SM HZ BKN035
     FM071400 03008KT 6SM HZ SKC=



000
FTUS43 KDMX 070207 AAA
TAFDSM
TAF AMD
KDSM 070207Z 0702/0724 36009KT 3SM HZ FEW050 BKN150
      TEMPO 0702/0705 2SM HZ BKN035
     FM071400 03009KT P6SM SKC=



000
FTUS43 KDMX 070207 AAA
TAFOTM
TAF AMD
KOTM 070207Z 0702/0724 33009KT 6SM HZ FEW020 BKN040 OVC150
      TEMPO 0702/0704 3SM HZ BKN025
     FM070400 34009KT 3SM HZ FEW030 SCT060 BKN150
     FM071400 02008KT P6SM SKC=



000
FTUS43 KDMX 070207 AAA
TAFALO
TAF AMD
KALO 070207Z 0702/0724 34010KT 3SM HZ FEW050
      TEMPO 0702/0705 2SM HZ BKN035
     FM071400 01009KT P6SM SKC=



000
FTUS43 KDMX 070207 AAA
TAFMCW
TAF AMD
KMCW 070207Z 0702/0724 35009KT 3SM HZ SKC
      TEMPO 0702/0704 2SM HZ BKN035
     FM071400 01010KT 6SM HZ SKC=



000
FTUS43 KDMX 070207 AAA
TAFFOD
TAF AMD
KFOD 070207Z 0702/0724 36007KT 3SM HZ SKC
      TEMPO 0702/0704 2SM HZ BKN035
     FM071400 03008KT 6SM HZ SKC=



000
FTUS43 KDMX 070207 AAA
TAFALO
TAF AMD
KALO 070207Z 0702/0724 34010KT 3SM HZ FEW050
      TEMPO 0702/0705 2SM HZ BKN035
     FM071400 01009KT P6SM SKC=



000
FTUS43 KDMX 070207 AAA
TAFFOD
TAF AMD
KFOD 070207Z 0702/0724 36007KT 3SM HZ SKC
      TEMPO 0702/0704 2SM HZ BKN035
     FM071400 03008KT 6SM HZ SKC=



000
FTUS43 KDMX 070207 AAA
TAFMCW
TAF AMD
KMCW 070207Z 0702/0724 35009KT 3SM HZ SKC
      TEMPO 0702/0704 2SM HZ BKN035
     FM071400 01010KT 6SM HZ SKC=



000
FTUS43 KDMX 070207 AAA
TAFDSM
TAF AMD
KDSM 070207Z 0702/0724 36009KT 3SM HZ FEW050 BKN150
      TEMPO 0702/0705 2SM HZ BKN035
     FM071400 03009KT P6SM SKC=



000
FTUS43 KDMX 070207 AAA
TAFOTM
TAF AMD
KOTM 070207Z 0702/0724 33009KT 6SM HZ FEW020 BKN040 OVC150
      TEMPO 0702/0704 3SM HZ BKN025
     FM070400 34009KT 3SM HZ FEW030 SCT060 BKN150
     FM071400 02008KT P6SM SKC=



000
FTUS43 KDMX 062320
TAFMCW
TAF
KMCW 062320Z 0700/0724 35016G22KT 3SM HZ FEW025 SCT035
      TEMPO 0700/0702 2SM HZ
     FM070200 35011KT 3SM HZ FEW050
     FM071400 01010KT 6SM HZ SKC=



000
FTUS43 KDMX 062320
TAFOTM
TAF
KOTM 062320Z 0700/0724 32010KT 6SM BR VCSH SCT020 BKN035
      TEMPO 0700/0702 5SM -SHRA BR FEW015 BKN025
     FM070200 33010KT 6SM HZ FEW025 SCT040
     FM070500 34009KT 5SM HZ FEW050
     FM071400 02008KT P6SM SKC=



000
FTUS43 KDMX 062320
TAFDSM
TAF
KDSM 062320Z 0700/0724 35011G17KT P6SM FEW020 SCT030
      TEMPO 0700/0702 5SM HZ BKN025
     FM070200 35009KT 4SM HZ FEW050
     FM071400 03009KT P6SM SKC=



000
FTUS43 KDMX 062320
TAFALO
TAF
KALO 062320Z 0700/0724 33014G20KT P6SM FEW020 SCT030
      TEMPO 0700/0702 4SM HZ BKN030
     FM070200 34010KT 4SM HZ FEW050
     FM071400 01009KT P6SM SKC=



000
FTUS43 KDMX 062320
TAFMCW
TAF
KMCW 062320Z 0700/0724 35016G22KT 3SM HZ FEW025 SCT035
      TEMPO 0700/0702 2SM HZ
     FM070200 35011KT 3SM HZ FEW050
     FM071400 01010KT 6SM HZ SKC=



000
FTUS43 KDMX 062320
TAFFOD
TAF
KFOD 062320Z 0700/0724 36009G15KT 3SM HZ SCT035
      TEMPO 0700/0702 2SM HZ
     FM070200 36007KT 3SM HZ FEW050
     FM071400 03008KT 6SM HZ SKC=



000
FTUS43 KDMX 062320
TAFDSM
TAF
KDSM 062320Z 0700/0724 35011G17KT P6SM FEW020 SCT030
      TEMPO 0700/0702 5SM HZ BKN025
     FM070200 35009KT 4SM HZ FEW050
     FM071400 03009KT P6SM SKC=



000
FTUS43 KDMX 062320
TAFALO
TAF
KALO 062320Z 0700/0724 33014G20KT P6SM FEW020 SCT030
      TEMPO 0700/0702 4SM HZ BKN030
     FM070200 34010KT 4SM HZ FEW050
     FM071400 01009KT P6SM SKC=



000
FTUS43 KDMX 062320
TAFFOD
TAF
KFOD 062320Z 0700/0724 36009G15KT 3SM HZ SCT035
      TEMPO 0700/0702 2SM HZ
     FM070200 36007KT 3SM HZ FEW050
     FM071400 03008KT 6SM HZ SKC=



000
FTUS43 KDMX 062320
TAFOTM
TAF
KOTM 062320Z 0700/0724 32010KT 6SM BR VCSH SCT020 BKN035
      TEMPO 0700/0702 5SM -SHRA BR FEW015 BKN025
     FM070200 33010KT 6SM HZ FEW025 SCT040
     FM070500 34009KT 5SM HZ FEW050
     FM071400 02008KT P6SM SKC=



000
FTUS43 KDMX 062042 AAA
TAFOTM
TAF AMD
KOTM 062042Z 0621/0718 25007KT P6SM -SHRA BKN035
      TEMPO 0621/0624 3/4SM +TSRA BR BKN022CB
     FM070000 31011KT P6SM VCSH OVC025
     FM070400 34012KT P6SM BKN040
     FM071100 36013KT P6SM SCT250=



000
FTUS43 KDMX 062042 AAA
TAFOTM
TAF AMD
KOTM 062042Z 0621/0718 25007KT P6SM -SHRA BKN035
      TEMPO 0621/0624 3/4SM +TSRA BR BKN022CB
     FM070000 31011KT P6SM VCSH OVC025
     FM070400 34012KT P6SM BKN040
     FM071100 36013KT P6SM SCT250=



000
FTUS43 KDMX 062042 AAA
TAFOTM
TAF AMD
KOTM 062042Z 0621/0718 25007KT P6SM -SHRA BKN035
      TEMPO 0621/0624 3/4SM +TSRA BR BKN022CB
     FM070000 31011KT P6SM VCSH OVC025
     FM070400 34012KT P6SM BKN040
     FM071100 36013KT P6SM SCT250=



000
FTUS43 KDMX 062042 AAA
TAFOTM
TAF AMD
KOTM 062042Z 0621/0718 25007KT P6SM -SHRA BKN035
      TEMPO 0621/0624 3/4SM +TSRA BR BKN022CB
     FM070000 31011KT P6SM VCSH OVC025
     FM070400 34012KT P6SM BKN040
     FM071100 36013KT P6SM SCT250=



000
FTUS43 KDMX 062040 AAA
TAFMCW
TAF AMD
KMCW 062040Z 0621/0718 34018G27KT P6SM BKN015
     FM062200 34015G22KT 3SM HZ SCT015 BKN035
     FM070200 34011KT 3SM HZ FEW035 SCT250
     FM071400 36008KT 6SM HZ SKC=



000
FTUS43 KDMX 061942 AAA
TAFFOD
TAF AMD
KFOD 061942Z 0620/0718 34012G17KT 3SM HZ SCT012 BKN024
     FM062100 36009KT 2SM HZ BKN035
     FM070100 01006KT 4SM HZ FEW250
     FM071400 02007KT 6SM HZ SKC=



000
FTUS43 KDMX 061942 AAA
TAFFOD
TAF AMD
KFOD 061942Z 0620/0718 34012G17KT 3SM HZ SCT012 BKN024
     FM062100 36009KT 2SM HZ BKN035
     FM070100 01006KT 4SM HZ FEW250
     FM071400 02007KT 6SM HZ SKC=



000
FTUS43 KDMX 061734
TAFFOD
TAF
KFOD 061734Z 0618/0718 24008KT P6SM VCSH BKN009
     FM061900 34012G17KT P6SM BKN008
     FM062100 36009KT P6SM BKN035
     FM070100 01006KT P6SM FEW250=



000
FTUS43 KDMX 061734
TAFOTM
TAF
KOTM 061734Z 0618/0718 19010KT P6SM -SHRA SCT020 BKN100
      TEMPO 0618/0620 4SM -TSRA BR BKN020CB
     FM062000 21012G18KT P6SM VCTS BKN035CB
     FM070000 31011KT P6SM VCSH OVC025
     FM070400 34012KT P6SM BKN040
     FM071100 36013KT P6SM SCT250=



000
FTUS43 KDMX 061734
TAFMCW
TAF
KMCW 061734Z 0618/0718 24010KT P6SM VCSH SCT010 BKN060
     FM061900 34016G21KT P6SM SCT007 BKN020
     FM070100 33010KT P6SM SCT035 BKN250
     FM070600 35007KT P6SM SKC=



000
FTUS43 KDMX 061734
TAFALO
TAF
KALO 061734Z 0618/0718 22010KT P6SM VCSH SCT010 BKN150
     FM062200 32014G20KT P6SM BKN030
     FM070200 33008KT P6SM SCT030 BKN250
     FM071100 36009KT P6SM SKC=



000
FTUS43 KDMX 061734
TAFDSM
TAF
KDSM 061734Z 0618/0718 25008KT P6SM SCT010 BKN050
      TEMPO 0618/0620 3SM -TSRA BR BKN010CB
     FM062100 30013KT P6SM VCSH SCT010 BKN035
     FM070000 34012KT P6SM BKN040
     FM070800 36009KT P6SM FEW250=



000
FTUS43 KDMX 061734
TAFALO
TAF
KALO 061734Z 0618/0718 22010KT P6SM VCSH SCT010 BKN150
     FM062200 32014G20KT P6SM BKN030
     FM070200 33008KT P6SM SCT030 BKN250
     FM071100 36009KT P6SM SKC=



000
FTUS43 KDMX 061734
TAFFOD
TAF
KFOD 061734Z 0618/0718 24008KT P6SM VCSH BKN009
     FM061900 34012G17KT P6SM BKN008
     FM062100 36009KT P6SM BKN035
     FM070100 01006KT P6SM FEW250=



000
FTUS43 KDMX 061734
TAFMCW
TAF
KMCW 061734Z 0618/0718 24010KT P6SM VCSH SCT010 BKN060
     FM061900 34016G21KT P6SM SCT007 BKN020
     FM070100 33010KT P6SM SCT035 BKN250
     FM070600 35007KT P6SM SKC=



000
FTUS43 KDMX 061734
TAFDSM
TAF
KDSM 061734Z 0618/0718 25008KT P6SM SCT010 BKN050
      TEMPO 0618/0620 3SM -TSRA BR BKN010CB
     FM062100 30013KT P6SM VCSH SCT010 BKN035
     FM070000 34012KT P6SM BKN040
     FM070800 36009KT P6SM FEW250=



000
FTUS43 KDMX 061734
TAFOTM
TAF
KOTM 061734Z 0618/0718 19010KT P6SM -SHRA SCT020 BKN100
      TEMPO 0618/0620 4SM -TSRA BR BKN020CB
     FM062000 21012G18KT P6SM VCTS BKN035CB
     FM070000 31011KT P6SM VCSH OVC025
     FM070400 34012KT P6SM BKN040
     FM071100 36013KT P6SM SCT250=



000
FTUS43 KDMX 061658 AAB
TAFDSM
TAF AMD
KDSM 061658Z 0617/0712 23011KT P6SM SCT010 BKN050
      TEMPO 0617/0620 5SM -TSRA BR BKN010CB
     FM062000 29014KT P6SM VCTS SCT010 BKN025CB
     FM070000 34014KT P6SM SCT035=



000
FTUS43 KDMX 061658 AAB
TAFDSM
TAF AMD
KDSM 061658Z 0617/0712 23011KT P6SM SCT010 BKN050
      TEMPO 0617/0620 5SM -TSRA BR BKN010CB
     FM062000 29014KT P6SM VCTS SCT010 BKN025CB
     FM070000 34014KT P6SM SCT035=



000
FTUS43 KDMX 061422 AAA
TAFMCW
TAF AMD
KMCW 061422Z 0614/0712 20012KT 6SM BR VCSH BKN025 OVC090
     FM061500 23013KT 5SM RA OVC025
     FM061900 31014G19KT P6SM BKN035
     FM070100 34008KT P6SM SCT050=



000
FTUS43 KDMX 061422 AAA
TAFMCW
TAF AMD
KMCW 061422Z 0614/0712 20012KT 6SM BR VCSH BKN025 OVC090
     FM061500 23013KT 5SM RA OVC025
     FM061900 31014G19KT P6SM BKN035
     FM070100 34008KT P6SM SCT050=



000
FTUS43 KDMX 061422 AAA
TAFMCW
TAF AMD
KMCW 061422Z 0614/0712 20012KT 6SM BR VCSH BKN025 OVC090
     FM061500 23013KT 5SM RA OVC025
     FM061900 31014G19KT P6SM BKN035
     FM070100 34008KT P6SM SCT050=



000
FTUS43 KDMX 061422 AAA
TAFMCW
TAF AMD
KMCW 061422Z 0614/0712 20012KT 6SM BR VCSH BKN025 OVC090
     FM061500 23013KT 5SM RA OVC025
     FM061900 31014G19KT P6SM BKN035
     FM070100 34008KT P6SM SCT050=



000
FTUS43 KDMX 061415 AAB
TAFOTM
TAF AMD
KOTM 061415Z 0614/0712 21011G17KT P6SM BKN100
      TEMPO 0614/0615 TS OVC030CB
     FM062000 21012G18KT P6SM VCTS BKN035CB
     FM070000 28010KT P6SM VCSH OVC025
     FM070400 32014KT P6SM SCT035=



000
FTUS43 KDMX 061415 AAB
TAFOTM
TAF AMD
KOTM 061415Z 0614/0712 21011G17KT P6SM BKN100
      TEMPO 0614/0615 TS OVC030CB
     FM062000 21012G18KT P6SM VCTS BKN035CB
     FM070000 28010KT P6SM VCSH OVC025
     FM070400 32014KT P6SM SCT035=



000
FTUS43 KDMX 061414 AAA
TAFALO
TAF AMD
KALO 061414Z 0614/0712 17011KT 3SM RA BR SCT040 OVC090
     FM061530 19011G17KT P6SM SCT050 BKN100
     FM061800 22012G18KT P6SM VCTS SCT015 BKN040CB
     FM062200 35008KT P6SM SCT060=



000
FTUS43 KDMX 061414 AAA
TAFALO
TAF AMD
KALO 061414Z 0614/0712 17011KT 3SM RA BR SCT040 OVC090
     FM061530 19011G17KT P6SM SCT050 BKN100
     FM061800 22012G18KT P6SM VCTS SCT015 BKN040CB
     FM062200 35008KT P6SM SCT060=



000
FTUS43 KDMX 061414 AAA
TAFALO
TAF AMD
KALO 061414Z 0614/0712 17011KT 3SM RA BR SCT040 OVC090
     FM061530 19011G17KT P6SM SCT050 BKN100
     FM061800 22012G18KT P6SM VCTS SCT015 BKN040CB
     FM062200 35008KT P6SM SCT060=



000
FTUS43 KDMX 061414 AAA
TAFALO
TAF AMD
KALO 061414Z 0614/0712 17011KT 3SM RA BR SCT040 OVC090
     FM061530 19011G17KT P6SM SCT050 BKN100
     FM061800 22012G18KT P6SM VCTS SCT015 BKN040CB
     FM062200 35008KT P6SM SCT060=



000
FTUS43 KDMX 061407 AAA
TAFOTM
TAF AMD
KOTM 061407Z 0614/0712 21011G17KT P6SM BKN100
      TEMPO 0614/0615 TS BKN035CB
     FM062000 21012G18KT P6SM VCTS BKN035CB
     FM070000 28010KT P6SM VCSH OVC025
     FM070400 32014KT P6SM SCT035=



000
FTUS43 KDMX 061407 AAA
TAFOTM
TAF AMD
KOTM 061407Z 0614/0712 21011G17KT P6SM BKN100
      TEMPO 0614/0615 TS BKN035CB
     FM062000 21012G18KT P6SM VCTS BKN035CB
     FM070000 28010KT P6SM VCSH OVC025
     FM070400 32014KT P6SM SCT035=



000
FTUS43 KDMX 061407 AAA
TAFOTM
TAF AMD
KOTM 061407Z 0614/0712 21011G17KT P6SM BKN100
      TEMPO 0614/0615 TS BKN035CB
     FM062000 21012G18KT P6SM VCTS BKN035CB
     FM070000 28010KT P6SM VCSH OVC025
     FM070400 32014KT P6SM SCT035=



000
FTUS43 KDMX 061358 AAA
TAFFOD
TAF AMD
KFOD 061358Z 0614/0712 22010KT P6SM -SHRA OVC025
     FM061800 18010G18KT P6SM VCTS SCT010 OVC025CB
     FM062000 34012G18KT P6SM SCT015 BKN035
     FM070000 36006KT P6SM SCT250=



000
FTUS43 KDMX 061358 AAA
TAFFOD
TAF AMD
KFOD 061358Z 0614/0712 22010KT P6SM -SHRA OVC025
     FM061800 18010G18KT P6SM VCTS SCT010 OVC025CB
     FM062000 34012G18KT P6SM SCT015 BKN035
     FM070000 36006KT P6SM SCT250=



000
FTUS43 KDMX 061358 AAA
TAFFOD
TAF AMD
KFOD 061358Z 0614/0712 22010KT P6SM -SHRA OVC025
     FM061800 18010G18KT P6SM VCTS SCT010 OVC025CB
     FM062000 34012G18KT P6SM SCT015 BKN035
     FM070000 36006KT P6SM SCT250=



000
FTUS43 KDMX 061358 AAA
TAFFOD
TAF AMD
KFOD 061358Z 0614/0712 22010KT P6SM -SHRA OVC025
     FM061800 18010G18KT P6SM VCTS SCT010 OVC025CB
     FM062000 34012G18KT P6SM SCT015 BKN035
     FM070000 36006KT P6SM SCT250=



000
FTUS43 KDMX 061350 AAA
TAFDSM
TAF AMD
KDSM 061350Z 0614/0712 22011KT P6SM SCT035 BKN100
     FM061600 23011KT P6SM -RA SCT035 BKN060
     FM062000 29014KT P6SM VCTS SCT010 BKN025CB
     FM070000 34014KT P6SM SCT035=



000
FTUS43 KDMX 061350 AAA
TAFDSM
TAF AMD
KDSM 061350Z 0614/0712 22011KT P6SM SCT035 BKN100
     FM061600 23011KT P6SM -RA SCT035 BKN060
     FM062000 29014KT P6SM VCTS SCT010 BKN025CB
     FM070000 34014KT P6SM SCT035=



000
FTUS43 KDMX 061120
TAFALO
TAF
KALO 061120Z 0612/0712 17011KT P6SM VCTS SCT040 BKN080CB
      TEMPO 0612/0615 3SM -TSRA BR SCT025 BKN040CB
     FM061900 19013KT P6SM VCTS SCT012 BKN025CB
     FM062200 34013KT P6SM VCSH SCT015 BKN040
     FM070200 35014KT P6SM SCT040=



000
FTUS43 KDMX 061120
TAFFOD
TAF
KFOD 061120Z 0612/0712 22011KT P6SM -SHRA SCT035 BKN070
     FM061600 18012KT P6SM VCTS SCT010 BKN025CB
     FM062000 34012KT P6SM SCT015 BKN035
     FM070000 01008KT P6SM SCT250=



000
FTUS43 KDMX 061120
TAFDSM
TAF
KDSM 061120Z 0612/0712 17011KT P6SM VCTS SCT025 BKN040CB
      TEMPO 0612/0614 1SM -TSRA SCT015 BKN025CB
     FM061500 19012KT P6SM SCT035 BKN100
     FM062000 24014KT P6SM VCTS SCT010 BKN025CB
     FM070000 34014KT P6SM SCT035=



000
FTUS43 KDMX 061120
TAFOTM
TAF
KOTM 061120Z 0612/0712 17011G17KT P6SM BKN100
     FM062000 19013G22KT P6SM VCTS SCT035 BKN050CB
     FM070000 28010KT P6SM VCSH BKN025
     FM070400 32014KT P6SM SCT035=



000
FTUS43 KDMX 061120
TAFALO
TAF
KALO 061120Z 0612/0712 17011KT P6SM VCTS SCT040 BKN080CB
      TEMPO 0612/0615 3SM -TSRA BR SCT025 BKN040CB
     FM061900 19013KT P6SM VCTS SCT012 BKN025CB
     FM062200 34013KT P6SM VCSH SCT015 BKN040
     FM070200 35014KT P6SM SCT040=



000
FTUS43 KDMX 061120
TAFOTM
TAF
KOTM 061120Z 0612/0712 17011G17KT P6SM BKN100
     FM062000 19013G22KT P6SM VCTS SCT035 BKN050CB
     FM070000 28010KT P6SM VCSH BKN025
     FM070400 32014KT P6SM SCT035=



000
FTUS43 KDMX 061120
TAFALO
TAF
KALO 061120Z 0612/0712 17011KT P6SM VCTS SCT040 BKN080CB
      TEMPO 0612/0615 3SM -TSRA BR SCT025 BKN040CB
     FM061900 19013KT P6SM VCTS SCT012 BKN025CB
     FM062200 34013KT P6SM VCSH SCT015 BKN040
     FM070200 35014KT P6SM SCT040=



000
FTUS43 KDMX 061120
TAFFOD
TAF
KFOD 061120Z 0612/0712 22011KT P6SM -SHRA SCT035 BKN070
     FM061600 18012KT P6SM VCTS SCT010 BKN025CB
     FM062000 34012KT P6SM SCT015 BKN035
     FM070000 01008KT P6SM SCT250=



000
FTUS43 KDMX 061120
TAFMCW
TAF
KMCW 061120Z 0612/0712 20014KT P6SM -SHRA SCT015 BKN040
      TEMPO 0612/0614 5SM -TSRA BR BKN025CB
     FM061400 20012KT P6SM VCSH SCT035 BKN080
     FM061700 23013KT P6SM VCTS SCT012 BKN025CB
     FM062100 33014G19KT P6SM SCT035=



000
FTUS43 KDMX 061120
TAFDSM
TAF
KDSM 061120Z 0612/0712 17011KT P6SM VCTS SCT025 BKN040CB
      TEMPO 0612/0614 1SM -TSRA SCT015 BKN025CB
     FM061500 19012KT P6SM SCT035 BKN100
     FM062000 24014KT P6SM VCTS SCT010 BKN025CB
     FM070000 34014KT P6SM SCT035=



000
FTUS43 KDMX 061120
TAFFOD
TAF
KFOD 061120Z 0612/0712 22011KT P6SM -SHRA SCT035 BKN070
     FM061600 18012KT P6SM VCTS SCT010 BKN025CB
     FM062000 34012KT P6SM SCT015 BKN035
     FM070000 01008KT P6SM SCT250=



000
FTUS43 KDMX 061120
TAFMCW
TAF
KMCW 061120Z 0612/0712 20014KT P6SM -SHRA SCT015 BKN040
      TEMPO 0612/0614 5SM -TSRA BR BKN025CB
     FM061400 20012KT P6SM VCSH SCT035 BKN080
     FM061700 23013KT P6SM VCTS SCT012 BKN025CB
     FM062100 33014G19KT P6SM SCT035=



000
FTUS43 KDMX 061120
TAFDSM
TAF
KDSM 061120Z 0612/0712 17011KT P6SM VCTS SCT025 BKN040CB
      TEMPO 0612/0614 1SM -TSRA SCT015 BKN025CB
     FM061500 19012KT P6SM SCT035 BKN100
     FM062000 24014KT P6SM VCTS SCT010 BKN025CB
     FM070000 34014KT P6SM SCT035=



000
FTUS43 KDMX 061120
TAFMCW
TAF
KMCW 061120Z 0612/0712 20014KT P6SM -SHRA SCT015 BKN040
      TEMPO 0612/0614 5SM -TSRA BR BKN025CB
     FM061400 20012KT P6SM VCSH SCT035 BKN080
     FM061700 23013KT P6SM VCTS SCT012 BKN025CB
     FM062100 33014G19KT P6SM SCT035=



000
FTUS43 KDMX 061120
TAFOTM
TAF
KOTM 061120Z 0612/0712 17011G17KT P6SM BKN100
     FM062000 19013G22KT P6SM VCTS SCT035 BKN050CB
     FM070000 28010KT P6SM VCSH BKN025
     FM070400 32014KT P6SM SCT035=



000
FTUS43 KDMX 061120
TAFALO
TAF
KALO 061120Z 0612/0712 17011KT P6SM VCTS SCT040 BKN080CB
      TEMPO 0612/0615 3SM -TSRA BR SCT025 BKN040CB
     FM061900 19013KT P6SM VCTS SCT012 BKN025CB
     FM062200 34013KT P6SM VCSH SCT015 BKN040
     FM070200 35014KT P6SM SCT040=



000
FTUS43 KDMX 061120
TAFDSM
TAF
KDSM 061120Z 0612/0712 17011KT P6SM VCTS SCT025 BKN040CB
      TEMPO 0612/0614 1SM -TSRA SCT015 BKN025CB
     FM061500 19012KT P6SM SCT035 BKN100
     FM062000 24014KT P6SM VCTS SCT010 BKN025CB
     FM070000 34014KT P6SM SCT035=



000
FTUS43 KDMX 061120
TAFOTM
TAF
KOTM 061120Z 0612/0712 17011G17KT P6SM BKN100
     FM062000 19013G22KT P6SM VCTS SCT035 BKN050CB
     FM070000 28010KT P6SM VCSH BKN025
     FM070400 32014KT P6SM SCT035=



000
FTUS43 KDMX 061120
TAFFOD
TAF
KFOD 061120Z 0612/0712 22011KT P6SM -SHRA SCT035 BKN070
     FM061600 18012KT P6SM VCTS SCT010 BKN025CB
     FM062000 34012KT P6SM SCT015 BKN035
     FM070000 01008KT P6SM SCT250=



000
FTUS43 KDMX 061120
TAFMCW
TAF
KMCW 061120Z 0612/0712 20014KT P6SM -SHRA SCT015 BKN040
      TEMPO 0612/0614 5SM -TSRA BR BKN025CB
     FM061400 20012KT P6SM VCSH SCT035 BKN080
     FM061700 23013KT P6SM VCTS SCT012 BKN025CB
     FM062100 33014G19KT P6SM SCT035=



000
FTUS43 KDMX 061052 AAC
TAFMCW
TAF AMD
KMCW 061052Z 0611/0706 19012KT P6SM -SHRA SCT015 BKN040
      TEMPO 0611/0614 5SM -TSRA BR BKN025CB
     FM061400 18011KT P6SM SCT035 BKN080
     FM061700 20013KT P6SM VCTS SCT012 BKN025CB
     FM062100 33014KT P6SM SCT035=



000
FTUS43 KDMX 061052 AAC
TAFMCW
TAF AMD
KMCW 061052Z 0611/0706 19012KT P6SM -SHRA SCT015 BKN040
      TEMPO 0611/0614 5SM -TSRA BR BKN025CB
     FM061400 18011KT P6SM SCT035 BKN080
     FM061700 20013KT P6SM VCTS SCT012 BKN025CB
     FM062100 33014KT P6SM SCT035=



000
FTUS43 KDMX 061052 AAC
TAFMCW
TAF AMD
KMCW 061052Z 0611/0706 19012KT P6SM -SHRA SCT015 BKN040
      TEMPO 0611/0614 5SM -TSRA BR BKN025CB
     FM061400 18011KT P6SM SCT035 BKN080
     FM061700 20013KT P6SM VCTS SCT012 BKN025CB
     FM062100 33014KT P6SM SCT035=



000
FTUS43 KDMX 061051 AAC
TAFDSM
TAF AMD
KDSM 061051Z 0611/0706 18011KT P6SM VCTS SCT040 BKN080CB
      TEMPO 0611/0613 5SM -TSRA SCT025 BKN040CB
     FM061400 19012KT P6SM SCT035 BKN100
     FM062100 25014KT P6SM VCTS SCT010 BKN025CB
     FM070000 34014KT P6SM SCT035=



000
FTUS43 KDMX 060923 AAA
TAFALO
TAF AMD
KALO 060923Z 0609/0706 17012KT P6SM VCSH SCT060 BKN100
      TEMPO 0610/0612 -TSRA SCT025 BKN040CB
     FM061900 19013KT P6SM VCTS SCT012 BKN025CB
     FM062200 33013KT P6SM SCT035=



000
FTUS43 KDMX 060923 AAA
TAFALO
TAF AMD
KALO 060923Z 0609/0706 17012KT P6SM VCSH SCT060 BKN100
      TEMPO 0610/0612 -TSRA SCT025 BKN040CB
     FM061900 19013KT P6SM VCTS SCT012 BKN025CB
     FM062200 33013KT P6SM SCT035=



000
FTUS43 KDMX 060922 AAB
TAFMCW
TAF AMD
KMCW 060922Z 0609/0706 17012KT P6SM VCSH SCT035 BKN060
      TEMPO 0611/0614 5SM -SHRA BKN035
     FM061400 18011KT P6SM SCT035 BKN080
     FM061700 20013KT P6SM VCTS SCT012 BKN025CB
     FM062100 33014KT P6SM SCT035=



000
FTUS43 KDMX 060922 AAB
TAFMCW
TAF AMD
KMCW 060922Z 0609/0706 17012KT P6SM VCSH SCT035 BKN060
      TEMPO 0611/0614 5SM -SHRA BKN035
     FM061400 18011KT P6SM SCT035 BKN080
     FM061700 20013KT P6SM VCTS SCT012 BKN025CB
     FM062100 33014KT P6SM SCT035=



000
FTUS43 KDMX 060922 AAB
TAFMCW
TAF AMD
KMCW 060922Z 0609/0706 17012KT P6SM VCSH SCT035 BKN060
      TEMPO 0611/0614 5SM -SHRA BKN035
     FM061400 18011KT P6SM SCT035 BKN080
     FM061700 20013KT P6SM VCTS SCT012 BKN025CB
     FM062100 33014KT P6SM SCT035=



000
FTUS43 KDMX 060911 AAC
TAFFOD
TAF AMD
KFOD 060911Z 0609/0706 17011G17KT P6SM -SHRA SCT015 BKN035
      TEMPO 0609/0611 4SM -SHRA SCT015 BKN025
     FM061200 18009KT P6SM SCT020 BKN040
     FM061700 18012KT P6SM VCTS SCT010 BKN025CB
     FM062000 33012KT P6SM SCT030=



000
FTUS43 KDMX 060911 AAC
TAFFOD
TAF AMD
KFOD 060911Z 0609/0706 17011G17KT P6SM -SHRA SCT015 BKN035
      TEMPO 0609/0611 4SM -SHRA SCT015 BKN025
     FM061200 18009KT P6SM SCT020 BKN040
     FM061700 18012KT P6SM VCTS SCT010 BKN025CB
     FM062000 33012KT P6SM SCT030=



000
FTUS43 KDMX 060908 AAA
TAFOTM
TAF AMD
KOTM 060908Z 0609/0706 16010KT P6SM BKN150
     FM061700 17013G22KT P6SM SCT035 BKN120
     FM070100 28010KT P6SM VCTS BKN025CB=



000
FTUS43 KDMX 060908 AAA
TAFOTM
TAF AMD
KOTM 060908Z 0609/0706 16010KT P6SM BKN150
     FM061700 17013G22KT P6SM SCT035 BKN120
     FM070100 28010KT P6SM VCTS BKN025CB=



000
FTUS43 KDMX 060908 AAA
TAFOTM
TAF AMD
KOTM 060908Z 0609/0706 16010KT P6SM BKN150
     FM061700 17013G22KT P6SM SCT035 BKN120
     FM070100 28010KT P6SM VCTS BKN025CB=



000
FTUS43 KDMX 060908 AAA
TAFOTM
TAF AMD
KOTM 060908Z 0609/0706 16010KT P6SM BKN150
     FM061700 17013G22KT P6SM SCT035 BKN120
     FM070100 28010KT P6SM VCTS BKN025CB=



000
FTUS43 KDMX 060907 AAB
TAFDSM
TAF AMD
KDSM 060907Z 0609/0706 17011KT P6SM SCT060 BKN150
     FM061200 19012KT P6SM SCT035 BKN100
     FM062100 25014KT P6SM VCTS SCT010 BKN025CB
     FM070000 34014KT P6SM SCT035=



000
FTUS43 KDMX 060907 AAB
TAFDSM
TAF AMD
KDSM 060907Z 0609/0706 17011KT P6SM SCT060 BKN150
     FM061200 19012KT P6SM SCT035 BKN100
     FM062100 25014KT P6SM VCTS SCT010 BKN025CB
     FM070000 34014KT P6SM SCT035=



000
FTUS43 KDMX 060907 AAB
TAFDSM
TAF AMD
KDSM 060907Z 0609/0706 17011KT P6SM SCT060 BKN150
     FM061200 19012KT P6SM SCT035 BKN100
     FM062100 25014KT P6SM VCTS SCT010 BKN025CB
     FM070000 34014KT P6SM SCT035=



000
FTUS43 KDMX 060907 AAB
TAFDSM
TAF AMD
KDSM 060907Z 0609/0706 17011KT P6SM SCT060 BKN150
     FM061200 19012KT P6SM SCT035 BKN100
     FM062100 25014KT P6SM VCTS SCT010 BKN025CB
     FM070000 34014KT P6SM SCT035=



000
FTUS43 KDMX 060802 AAB
TAFFOD
TAF AMD
KFOD 060802Z 0608/0706 17011G17KT P6SM VCTS SCT015 BKN035CB
      TEMPO 0608/0611 4SM -TSRA SCT015 BKN025CB
     FM061200 18009KT P6SM SCT020 BKN040
     FM061700 18012KT P6SM VCTS SCT010 BKN025CB
     FM062000 33012KT P6SM SCT030=



000
FTUS43 KDMX 060802 AAB
TAFFOD
TAF AMD
KFOD 060802Z 0608/0706 17011G17KT P6SM VCTS SCT015 BKN035CB
      TEMPO 0608/0611 4SM -TSRA SCT015 BKN025CB
     FM061200 18009KT P6SM SCT020 BKN040
     FM061700 18012KT P6SM VCTS SCT010 BKN025CB
     FM062000 33012KT P6SM SCT030=



000
FTUS43 KDMX 060802 AAB
TAFFOD
TAF AMD
KFOD 060802Z 0608/0706 17011G17KT P6SM VCTS SCT015 BKN035CB
      TEMPO 0608/0611 4SM -TSRA SCT015 BKN025CB
     FM061200 18009KT P6SM SCT020 BKN040
     FM061700 18012KT P6SM VCTS SCT010 BKN025CB
     FM062000 33012KT P6SM SCT030=



000
FTUS43 KDMX 060718 AAA
TAFMCW
TAF AMD
KMCW 060718Z 0607/0706 16012KT P6SM VCSH SCT035 BKN140
     FM060900 17012KT P6SM VCTS SCT040 BKN060CB
      TEMPO 0609/0613 3SM -TSRA SCT025 BKN040CB
     FM061300 18011KT P6SM SCT035 BKN080
     FM061700 20013KT P6SM VCTS SCT012 BKN025CB
     FM062100 33014KT P6SM SCT035=



000
FTUS43 KDMX 060718 AAA
TAFMCW
TAF AMD
KMCW 060718Z 0607/0706 16012KT P6SM VCSH SCT035 BKN140
     FM060900 17012KT P6SM VCTS SCT040 BKN060CB
      TEMPO 0609/0613 3SM -TSRA SCT025 BKN040CB
     FM061300 18011KT P6SM SCT035 BKN080
     FM061700 20013KT P6SM VCTS SCT012 BKN025CB
     FM062100 33014KT P6SM SCT035=



000
FTUS43 KDMX 060716 AAA
TAFDSM
TAF AMD
KDSM 060716Z 0607/0706 18011G17KT P6SM VCTS SCT060 BKN090CB
      TEMPO 0607/0609 4SM -TSRA SCT015 BKN040CB
     FM061000 18011KT P6SM VCTS SCT025 BKN040CB
     FM061200 19012KT P6SM SCT035 BKN100
     FM062100 25014KT P6SM VCTS SCT010 BKN025CB
     FM070000 34014KT P6SM SCT035=



000
FTUS43 KDMX 060716 AAA
TAFDSM
TAF AMD
KDSM 060716Z 0607/0706 18011G17KT P6SM VCTS SCT060 BKN090CB
      TEMPO 0607/0609 4SM -TSRA SCT015 BKN040CB
     FM061000 18011KT P6SM VCTS SCT025 BKN040CB
     FM061200 19012KT P6SM SCT035 BKN100
     FM062100 25014KT P6SM VCTS SCT010 BKN025CB
     FM070000 34014KT P6SM SCT035=



000
FTUS43 KDMX 060716 AAA
TAFDSM
TAF AMD
KDSM 060716Z 0607/0706 18011G17KT P6SM VCTS SCT060 BKN090CB
      TEMPO 0607/0609 4SM -TSRA SCT015 BKN040CB
     FM061000 18011KT P6SM VCTS SCT025 BKN040CB
     FM061200 19012KT P6SM SCT035 BKN100
     FM062100 25014KT P6SM VCTS SCT010 BKN025CB
     FM070000 34014KT P6SM SCT035=



000
FTUS43 KDMX 060715 AAA
TAFFOD
TAF AMD
KFOD 060715Z 0607/0706 17011G17KT P6SM VCTS SCT040 BKN100CB
      TEMPO 0608/0611 4SM -TSRA SCT030 BKN040CB
     FM061200 18009KT P6SM SCT040 BKN100
     FM061700 18012KT P6SM VCTS SCT010 BKN025CB
     FM062000 33012KT P6SM SCT030=



000
FTUS43 KDMX 060715 AAA
TAFFOD
TAF AMD
KFOD 060715Z 0607/0706 17011G17KT P6SM VCTS SCT040 BKN100CB
      TEMPO 0608/0611 4SM -TSRA SCT030 BKN040CB
     FM061200 18009KT P6SM SCT040 BKN100
     FM061700 18012KT P6SM VCTS SCT010 BKN025CB
     FM062000 33012KT P6SM SCT030=



000
FTUS43 KDMX 060715 AAA
TAFFOD
TAF AMD
KFOD 060715Z 0607/0706 17011G17KT P6SM VCTS SCT040 BKN100CB
      TEMPO 0608/0611 4SM -TSRA SCT030 BKN040CB
     FM061200 18009KT P6SM SCT040 BKN100
     FM061700 18012KT P6SM VCTS SCT010 BKN025CB
     FM062000 33012KT P6SM SCT030=



000
FTUS43 KDMX 060520
TAFALO
TAF
KALO 060520Z 0606/0706 17011KT P6SM SCT120 BKN250
     FM061900 19013KT P6SM VCTS SCT012 BKN025CB
     FM062200 33013KT P6SM SCT035=



000
FTUS43 KDMX 060520
TAFDSM
TAF
KDSM 060520Z 0606/0706 16011KT P6SM SCT080 BKN200
     FM061000 18011KT P6SM VCTS SCT025 BKN040CB
     FM061200 19012KT P6SM SCT035 BKN100
     FM062100 25014KT P6SM VCTS SCT010 BKN025CB
     FM070000 34014KT P6SM SCT035=



000
FTUS43 KDMX 060520
TAFOTM
TAF
KOTM 060520Z 0606/0706 16010KT P6SM SCT200
     FM061700 17013G22KT P6SM SCT035 BKN120
     FM070100 28010KT P6SM VCTS BKN025CB=



000
FTUS43 KDMX 060520
TAFMCW
TAF
KMCW 060520Z 0606/0706 16012KT P6SM SCT035 SCT100
     FM060900 17012KT P6SM VCTS SCT025 BKN040CB
     FM061200 18011KT P6SM SCT035 BKN080
     FM061700 20013KT P6SM VCTS SCT012 BKN025CB
     FM062100 33014KT P6SM SCT035=



000
FTUS43 KDMX 060520
TAFMCW
TAF
KMCW 060520Z 0606/0706 16012KT P6SM SCT035 SCT100
     FM060900 17012KT P6SM VCTS SCT025 BKN040CB
     FM061200 18011KT P6SM SCT035 BKN080
     FM061700 20013KT P6SM VCTS SCT012 BKN025CB
     FM062100 33014KT P6SM SCT035=



000
FTUS43 KDMX 060520
TAFFOD
TAF
KFOD 060520Z 0606/0706 16009KT P6SM SCT030 BKN180
     FM060900 16010KT P6SM VCTS SCT022 BKN040CB
     FM061200 18009KT P6SM SCT040 BKN100
     FM061700 18012KT P6SM VCTS SCT010 BKN025CB
     FM062000 33012KT P6SM SCT030=



000
FTUS43 KDMX 060520
TAFDSM
TAF
KDSM 060520Z 0606/0706 16011KT P6SM SCT080 BKN200
     FM061000 18011KT P6SM VCTS SCT025 BKN040CB
     FM061200 19012KT P6SM SCT035 BKN100
     FM062100 25014KT P6SM VCTS SCT010 BKN025CB
     FM070000 34014KT P6SM SCT035=



000
FTUS43 KDMX 060520
TAFOTM
TAF
KOTM 060520Z 0606/0706 16010KT P6SM SCT200
     FM061700 17013G22KT P6SM SCT035 BKN120
     FM070100 28010KT P6SM VCTS BKN025CB=



000
FTUS43 KDMX 060520
TAFFOD
TAF
KFOD 060520Z 0606/0706 16009KT P6SM SCT030 BKN180
     FM060900 16010KT P6SM VCTS SCT022 BKN040CB
     FM061200 18009KT P6SM SCT040 BKN100
     FM061700 18012KT P6SM VCTS SCT010 BKN025CB
     FM062000 33012KT P6SM SCT030=



000
FTUS43 KDMX 060520
TAFALO
TAF
KALO 060520Z 0606/0706 17011KT P6SM SCT120 BKN250
     FM061900 19013KT P6SM VCTS SCT012 BKN025CB
     FM062200 33013KT P6SM SCT035=



000
FTUS43 KDMX 052335
TAFFOD
TAF
KFOD 052335Z 0600/0624 16010KT P6SM FEW035 SCT090
     FM061700 18012KT P6SM VCTS SCT010 BKN025CB
     FM062100 30014KT P6SM SCT030=



000
FTUS43 KDMX 052335
TAFOTM
TAF
KOTM 052335Z 0600/0624 15011KT P6SM SCT150
     FM061700 17013G22KT P6SM SCT035 BKN120=



000
FTUS43 KDMX 052335
TAFALO
TAF
KALO 052335Z 0600/0624 17012KT P6SM SCT120
     FM061900 18013KT P6SM VCTS SCT012 BKN025CB
     FM062200 30013KT P6SM SCT035=



000
FTUS43 KDMX 052335
TAFMCW
TAF
KMCW 052335Z 0600/0624 17014KT P6SM SCT035 SCT100
     FM061200 18012KT P6SM VCSH BKN070
     FM061800 20013KT P6SM VCTS SCT012 BKN025CB
     FM062200 32014KT P6SM SCT035=



000
FTUS43 KDMX 052335
TAFALO
TAF
KALO 052335Z 0600/0624 17012KT P6SM SCT120
     FM061900 18013KT P6SM VCTS SCT012 BKN025CB
     FM062200 30013KT P6SM SCT035=



000
FTUS43 KDMX 052335
TAFDSM
TAF
KDSM 052335Z 0600/0624 16013KT P6SM SCT120
     FM061300 18013KT P6SM SCT035 BKN100
     FM062100 23014KT P6SM VCTS SCT010 BKN025CB=



000
FTUS43 KDMX 052335
TAFOTM
TAF
KOTM 052335Z 0600/0624 15011KT P6SM SCT150
     FM061700 17013G22KT P6SM SCT035 BKN120=



000
FTUS43 KDMX 052335
TAFFOD
TAF
KFOD 052335Z 0600/0624 16010KT P6SM FEW035 SCT090
     FM061700 18012KT P6SM VCTS SCT010 BKN025CB
     FM062100 30014KT P6SM SCT030=



000
FTUS43 KDMX 052335
TAFOTM
TAF
KOTM 052335Z 0600/0624 15011KT P6SM SCT150
     FM061700 17013G22KT P6SM SCT035 BKN120=



000
FTUS43 KDMX 052335
TAFMCW
TAF
KMCW 052335Z 0600/0624 17014KT P6SM SCT035 SCT100
     FM061200 18012KT P6SM VCSH BKN070
     FM061800 20013KT P6SM VCTS SCT012 BKN025CB
     FM062200 32014KT P6SM SCT035=



000
FTUS43 KDMX 052335
TAFALO
TAF
KALO 052335Z 0600/0624 17012KT P6SM SCT120
     FM061900 18013KT P6SM VCTS SCT012 BKN025CB
     FM062200 30013KT P6SM SCT035=



000
FTUS43 KDMX 052335
TAFFOD
TAF
KFOD 052335Z 0600/0624 16010KT P6SM FEW035 SCT090
     FM061700 18012KT P6SM VCTS SCT010 BKN025CB
     FM062100 30014KT P6SM SCT030=



000
FTUS43 KDMX 052335
TAFMCW
TAF
KMCW 052335Z 0600/0624 17014KT P6SM SCT035 SCT100
     FM061200 18012KT P6SM VCSH BKN070
     FM061800 20013KT P6SM VCTS SCT012 BKN025CB
     FM062200 32014KT P6SM SCT035=



000
FTUS43 KDMX 052335
TAFDSM
TAF
KDSM 052335Z 0600/0624 16013KT P6SM SCT120
     FM061300 18013KT P6SM SCT035 BKN100
     FM062100 23014KT P6SM VCTS SCT010 BKN025CB=



000
FTUS43 KDMX 052335
TAFOTM
TAF
KOTM 052335Z 0600/0624 15011KT P6SM SCT150
     FM061700 17013G22KT P6SM SCT035 BKN120=



000
FTUS43 KDMX 052335
TAFALO
TAF
KALO 052335Z 0600/0624 17012KT P6SM SCT120
     FM061900 18013KT P6SM VCTS SCT012 BKN025CB
     FM062200 30013KT P6SM SCT035=



000
FTUS43 KDMX 052335
TAFDSM
TAF
KDSM 052335Z 0600/0624 16013KT P6SM SCT120
     FM061300 18013KT P6SM SCT035 BKN100
     FM062100 23014KT P6SM VCTS SCT010 BKN025CB=



000
FTUS43 KDMX 052335
TAFFOD
TAF
KFOD 052335Z 0600/0624 16010KT P6SM FEW035 SCT090
     FM061700 18012KT P6SM VCTS SCT010 BKN025CB
     FM062100 30014KT P6SM SCT030=



000
FTUS43 KDMX 052335
TAFMCW
TAF
KMCW 052335Z 0600/0624 17014KT P6SM SCT035 SCT100
     FM061200 18012KT P6SM VCSH BKN070
     FM061800 20013KT P6SM VCTS SCT012 BKN025CB
     FM062200 32014KT P6SM SCT035=



000
FTUS43 KDMX 051733
TAFFOD
TAF
KFOD 051733Z 0518/0618 18013G18KT P6SM FEW035 BKN250
     FM060100 17012KT P6SM SCT100 BKN200
     FM061300 21013KT P6SM VCTS BKN035CB=



000
FTUS43 KDMX 051733
TAFMCW
TAF
KMCW 051733Z 0518/0618 17014G20KT P6SM SCT035 BKN250
     FM060200 16012KT P6SM SCT100 BKN200
     FM061200 20014KT P6SM VCTS BKN035CB=



000
FTUS43 KDMX 051733
TAFALO
TAF
KALO 051733Z 0518/0618 17013KT P6SM SCT035 BKN250
     FM060200 16010KT P6SM FEW100 BKN200
     FM061600 19014KT P6SM VCSH BKN035=



000
FTUS43 KDMX 051733
TAFALO
TAF
KALO 051733Z 0518/0618 17013KT P6SM SCT035 BKN250
     FM060200 16010KT P6SM FEW100 BKN200
     FM061600 19014KT P6SM VCSH BKN035=



000
FTUS43 KDMX 051733
TAFDSM
TAF
KDSM 051733Z 0518/0618 18012G18KT P6SM SCT035 BKN250
     FM060200 16010KT P6SM FEW100 SCT250
     FM061300 20013KT P6SM SCT035 BKN100=



000
FTUS43 KDMX 051733
TAFMCW
TAF
KMCW 051733Z 0518/0618 17014G20KT P6SM SCT035 BKN250
     FM060200 16012KT P6SM SCT100 BKN200
     FM061200 20014KT P6SM VCTS BKN035CB=



000
FTUS43 KDMX 051733
TAFOTM
TAF
KOTM 051733Z 0518/0618 16010KT P6SM SCT035 BKN250
     FM061300 19013KT P6SM BKN100=



000
FTUS43 KDMX 051733
TAFFOD
TAF
KFOD 051733Z 0518/0618 18013G18KT P6SM FEW035 BKN250
     FM060100 17012KT P6SM SCT100 BKN200
     FM061300 21013KT P6SM VCTS BKN035CB=



000
FTUS43 KDMX 051733
TAFFOD
TAF
KFOD 051733Z 0518/0618 18013G18KT P6SM FEW035 BKN250
     FM060100 17012KT P6SM SCT100 BKN200
     FM061300 21013KT P6SM VCTS BKN035CB=



000
FTUS43 KDMX 051158 CCA
TAFOTM
TAF COR
KOTM 051158Z 0512/0612 17006KT P6SM SKC
      TEMPO 0512/0513 5SM BR
     FM051600 17011KT P6SM SCT035=



000
FTUS43 KDMX 051135
TAFFOD
TAF
KFOD 051135Z 0512/0612 18007KT P6SM BKN250
     FM051600 18013G18KT P6SM SCT035
     FM060400 18012KT P6SM VCSH BKN035=



000
FTUS43 KDMX 051135
TAFMCW
TAF
KMCW 051135Z 0512/0612 18007KT P6SM SCT250
     FM051600 17013G19KT P6SM SCT035
     FM060600 16012KT P6SM VCSH BKN035=



000
FTUS43 KDMX 051135
TAFFOD
TAF
KFOD 051135Z 0512/0612 18007KT P6SM BKN250
     FM051600 18013G18KT P6SM SCT035
     FM060400 18012KT P6SM VCSH BKN035=



000
FTUS43 KDMX 051135
TAFALO
TAF
KALO 051135Z 0512/0612 17007KT P6SM SKC
     FM051700 17011G17KT P6SM SCT035
     FM060400 16011KT P6SM BKN035=



000
FTUS43 KDMX 051135
TAFMCW
TAF
KMCW 051135Z 0512/0612 18007KT P6SM SCT250
     FM051600 17013G19KT P6SM SCT035
     FM060600 16012KT P6SM VCSH BKN035=



000
FTUS43 KDMX 051135
TAFDSM
TAF
KDSM 051135Z 0512/0612 16008KT P6SM SCT250
     FM051600 18011G18KT P6SM SCT035
     FM060300 17011KT P6SM BKN035=



000
FTUS43 KDMX 051135
TAFALO
TAF
KALO 051135Z 0512/0612 17007KT P6SM SKC
     FM051700 17011G17KT P6SM SCT035
     FM060400 16011KT P6SM BKN035=



000
FTUS43 KDMX 051135
TAFOTM
TAF
KOTM 051135Z 0512/0612 17006KT P6SM SKC
     FM051600 17011KT P6SM SCT035=



000
FTUS43 KDMX 051135
TAFDSM
TAF
KDSM 051135Z 0512/0612 16008KT P6SM SCT250
     FM051600 18011G18KT P6SM SCT035
     FM060300 17011KT P6SM BKN035=



000
FTUS43 KDMX 051135
TAFOTM
TAF
KOTM 051135Z 0512/0612 17006KT P6SM SKC
     FM051600 17011KT P6SM SCT035=



000
FTUS43 KDMX 051135
TAFDSM
TAF
KDSM 051135Z 0512/0612 16008KT P6SM SCT250
     FM051600 18011G18KT P6SM SCT035
     FM060300 17011KT P6SM BKN035=



000
FTUS43 KDMX 051135
TAFOTM
TAF
KOTM 051135Z 0512/0612 17006KT P6SM SKC
     FM051600 17011KT P6SM SCT035=



000
FTUS43 KDMX 051135
TAFMCW
TAF
KMCW 051135Z 0512/0612 18007KT P6SM SCT250
     FM051600 17013G19KT P6SM SCT035
     FM060600 16012KT P6SM VCSH BKN035=



000
FTUS43 KDMX 051135
TAFALO
TAF
KALO 051135Z 0512/0612 17007KT P6SM SKC
     FM051700 17011G17KT P6SM SCT035
     FM060400 16011KT P6SM BKN035=



000
FTUS43 KDMX 051135
TAFFOD
TAF
KFOD 051135Z 0512/0612 18007KT P6SM BKN250
     FM051600 18013G18KT P6SM SCT035
     FM060400 18012KT P6SM VCSH BKN035=



000
FTUS43 KDMX 051135
TAFMCW
TAF
KMCW 051135Z 0512/0612 18007KT P6SM SCT250
     FM051600 17013G19KT P6SM SCT035
     FM060600 16012KT P6SM VCSH BKN035=



000
FTUS43 KDMX 051135
TAFALO
TAF
KALO 051135Z 0512/0612 17007KT P6SM SKC
     FM051700 17011G17KT P6SM SCT035
     FM060400 16011KT P6SM BKN035=



000
FTUS43 KDMX 051135
TAFDSM
TAF
KDSM 051135Z 0512/0612 16008KT P6SM SCT250
     FM051600 18011G18KT P6SM SCT035
     FM060300 17011KT P6SM BKN035=



000
FTUS43 KDMX 051135
TAFOTM
TAF
KOTM 051135Z 0512/0612 17006KT P6SM SKC
     FM051600 17011KT P6SM SCT035=



000
FTUS43 KDMX 051135
TAFFOD
TAF
KFOD 051135Z 0512/0612 18007KT P6SM BKN250
     FM051600 18013G18KT P6SM SCT035
     FM060400 18012KT P6SM VCSH BKN035=



000
FTUS43 KDMX 050520
TAFOTM
TAF
KOTM 050520Z 0506/0606 15005KT P6SM FEW250
     FM051600 17011KT P6SM SCT035=



000
FTUS43 KDMX 050520
TAFALO
TAF
KALO 050520Z 0506/0606 17005KT P6SM FEW250
     FM051500 18011G17KT P6SM FEW035=



000
FTUS43 KDMX 050520
TAFALO
TAF
KALO 050520Z 0506/0606 17005KT P6SM FEW250
     FM051500 18011G17KT P6SM FEW035=



000
FTUS43 KDMX 050520
TAFALO
TAF
KALO 050520Z 0506/0606 17005KT P6SM FEW250
     FM051500 18011G17KT P6SM FEW035=



000
FTUS43 KDMX 050520
TAFOTM
TAF
KOTM 050520Z 0506/0606 15005KT P6SM FEW250
     FM051600 17011KT P6SM SCT035=



000
FTUS43 KDMX 050520
TAFDSM
TAF
KDSM 050520Z 0506/0606 16006KT P6SM SCT250
     FM051600 18011G18KT P6SM SCT035=



000
FTUS43 KDMX 050520
TAFMCW
TAF
KMCW 050520Z 0506/0606 17006KT P6SM FEW250
     FM051500 18013G20KT P6SM FEW035=



000
FTUS43 KDMX 050520
TAFFOD
TAF
KFOD 050520Z 0506/0606 17005KT P6SM FEW250
     FM051500 18013G18KT P6SM SCT035=



000
FTUS43 KDMX 050520
TAFFOD
TAF
KFOD 050520Z 0506/0606 17005KT P6SM FEW250
     FM051500 18013G18KT P6SM SCT035=



000
FTUS43 KDMX 050520
TAFMCW
TAF
KMCW 050520Z 0506/0606 17006KT P6SM FEW250
     FM051500 18013G20KT P6SM FEW035=



000
FTUS43 KDMX 050520
TAFOTM
TAF
KOTM 050520Z 0506/0606 15005KT P6SM FEW250
     FM051600 17011KT P6SM SCT035=



000
FTUS43 KDMX 050520
TAFFOD
TAF
KFOD 050520Z 0506/0606 17005KT P6SM FEW250
     FM051500 18013G18KT P6SM SCT035=



000
FTUS43 KDMX 050520
TAFALO
TAF
KALO 050520Z 0506/0606 17005KT P6SM FEW250
     FM051500 18011G17KT P6SM FEW035=



000
FTUS43 KDMX 050520
TAFOTM
TAF
KOTM 050520Z 0506/0606 15005KT P6SM FEW250
     FM051600 17011KT P6SM SCT035=



000
FTUS43 KDMX 050520
TAFDSM
TAF
KDSM 050520Z 0506/0606 16006KT P6SM SCT250
     FM051600 18011G18KT P6SM SCT035=



000
FTUS43 KDMX 050520
TAFFOD
TAF
KFOD 050520Z 0506/0606 17005KT P6SM FEW250
     FM051500 18013G18KT P6SM SCT035=



000
FTUS43 KDMX 050520
TAFMCW
TAF
KMCW 050520Z 0506/0606 17006KT P6SM FEW250
     FM051500 18013G20KT P6SM FEW035=



000
FTUS43 KDMX 050520
TAFDSM
TAF
KDSM 050520Z 0506/0606 16006KT P6SM SCT250
     FM051600 18011G18KT P6SM SCT035=



000
FTUS43 KDMX 042320
TAFFOD
TAF
KFOD 042320Z 0500/0524 19006KT P6SM FEW040
     FM051500 18013G18KT P6SM SCT035=



000
FTUS43 KDMX 042320
TAFDSM
TAF
KDSM 042320Z 0500/0524 18006KT P6SM SCT250
     FM051600 18011G18KT P6SM SCT035=



000
FTUS43 KDMX 042320
TAFALO
TAF
KALO 042320Z 0500/0524 18005KT P6SM FEW040
     FM051500 18011G17KT P6SM FEW035=



000
FTUS43 KDMX 042320
TAFOTM
TAF
KOTM 042320Z 0500/0524 17005KT P6SM FEW250
     FM051600 17011KT P6SM SCT035=



000
FTUS43 KDMX 042320
TAFDSM
TAF
KDSM 042320Z 0500/0524 18006KT P6SM SCT250
     FM051600 18011G18KT P6SM SCT035=



000
FTUS43 KDMX 042320
TAFMCW
TAF
KMCW 042320Z 0500/0524 18006KT P6SM FEW040
     FM051500 18013G20KT P6SM FEW035=



000
FTUS43 KDMX 042320
TAFALO
TAF
KALO 042320Z 0500/0524 18005KT P6SM FEW040
     FM051500 18011G17KT P6SM FEW035=



000
FTUS43 KDMX 042320
TAFFOD
TAF
KFOD 042320Z 0500/0524 19006KT P6SM FEW040
     FM051500 18013G18KT P6SM SCT035=



000
FTUS43 KDMX 042320
TAFMCW
TAF
KMCW 042320Z 0500/0524 18006KT P6SM FEW040
     FM051500 18013G20KT P6SM FEW035=



000
FTUS43 KDMX 042320
TAFOTM
TAF
KOTM 042320Z 0500/0524 17005KT P6SM FEW250
     FM051600 17011KT P6SM SCT035=



000
FTUS43 KDMX 042320
TAFFOD
TAF
KFOD 042320Z 0500/0524 19006KT P6SM FEW040
     FM051500 18013G18KT P6SM SCT035=



000
FTUS43 KDMX 042320
TAFMCW
TAF
KMCW 042320Z 0500/0524 18006KT P6SM FEW040
     FM051500 18013G20KT P6SM FEW035=



000
FTUS43 KDMX 042320
TAFALO
TAF
KALO 042320Z 0500/0524 18005KT P6SM FEW040
     FM051500 18011G17KT P6SM FEW035=



000
FTUS43 KDMX 042320
TAFDSM
TAF
KDSM 042320Z 0500/0524 18006KT P6SM SCT250
     FM051600 18011G18KT P6SM SCT035=



000
FTUS43 KDMX 042320
TAFMCW
TAF
KMCW 042320Z 0500/0524 18006KT P6SM FEW040
     FM051500 18013G20KT P6SM FEW035=



000
FTUS43 KDMX 042320
TAFFOD
TAF
KFOD 042320Z 0500/0524 19006KT P6SM FEW040
     FM051500 18013G18KT P6SM SCT035=



000
FTUS43 KDMX 042320
TAFOTM
TAF
KOTM 042320Z 0500/0524 17005KT P6SM FEW250
     FM051600 17011KT P6SM SCT035=



000
FTUS43 KDMX 042320
TAFOTM
TAF
KOTM 042320Z 0500/0524 17005KT P6SM FEW250
     FM051600 17011KT P6SM SCT035=



000
FTUS43 KDMX 042320
TAFALO
TAF
KALO 042320Z 0500/0524 18005KT P6SM FEW040
     FM051500 18011G17KT P6SM FEW035=



000
FTUS43 KDMX 042320
TAFDSM
TAF
KDSM 042320Z 0500/0524 18006KT P6SM SCT250
     FM051600 18011G18KT P6SM SCT035=



000
FTUS43 KDMX 041728
TAFMCW
TAF
KMCW 041728Z 0418/0518 20008KT P6SM FEW040
     FM050100 17005KT P6SM SKC
     FM051500 18013G20KT P6SM FEW250=



000
FTUS43 KDMX 041728
TAFALO
TAF
KALO 041728Z 0418/0518 20007KT P6SM FEW040
     FM050100 16004KT P6SM SKC
     FM051500 17010KT P6SM FEW250=



000
FTUS43 KDMX 041728
TAFDSM
TAF
KDSM 041728Z 0418/0518 19007KT P6SM FEW040
     FM050100 15005KT P6SM SKC
     FM051600 17010KT P6SM FEW250=



000
FTUS43 KDMX 041728
TAFALO
TAF
KALO 041728Z 0418/0518 20007KT P6SM FEW040
     FM050100 16004KT P6SM SKC
     FM051500 17010KT P6SM FEW250=



000
FTUS43 KDMX 041728
TAFFOD
TAF
KFOD 041728Z 0418/0518 20007KT P6SM FEW040
     FM050100 17004KT P6SM SKC
     FM051500 18013KT P6SM SCT250=



000
FTUS43 KDMX 041728
TAFOTM
TAF
KOTM 041728Z 0418/0518 19006KT P6SM FEW035
     FM050100 15004KT P6SM SKC
     FM051600 16009KT P6SM SKC=



000
FTUS43 KDMX 041728
TAFDSM
TAF
KDSM 041728Z 0418/0518 19007KT P6SM FEW040
     FM050100 15005KT P6SM SKC
     FM051600 17010KT P6SM FEW250=



000
FTUS43 KDMX 041728
TAFMCW
TAF
KMCW 041728Z 0418/0518 20008KT P6SM FEW040
     FM050100 17005KT P6SM SKC
     FM051500 18013G20KT P6SM FEW250=



000
FTUS43 KDMX 041728
TAFOTM
TAF
KOTM 041728Z 0418/0518 19006KT P6SM FEW035
     FM050100 15004KT P6SM SKC
     FM051600 16009KT P6SM SKC=



000
FTUS43 KDMX 041728
TAFFOD
TAF
KFOD 041728Z 0418/0518 20007KT P6SM FEW040
     FM050100 17004KT P6SM SKC
     FM051500 18013KT P6SM SCT250=



000
FTUS43 KDMX 041728
TAFALO
TAF
KALO 041728Z 0418/0518 20007KT P6SM FEW040
     FM050100 16004KT P6SM SKC
     FM051500 17010KT P6SM FEW250=



000
FTUS43 KDMX 041728
TAFDSM
TAF
KDSM 041728Z 0418/0518 19007KT P6SM FEW040
     FM050100 15005KT P6SM SKC
     FM051600 17010KT P6SM FEW250=



000
FTUS43 KDMX 041728
TAFOTM
TAF
KOTM 041728Z 0418/0518 19006KT P6SM FEW035
     FM050100 15004KT P6SM SKC
     FM051600 16009KT P6SM SKC=



000
FTUS43 KDMX 041728
TAFALO
TAF
KALO 041728Z 0418/0518 20007KT P6SM FEW040
     FM050100 16004KT P6SM SKC
     FM051500 17010KT P6SM FEW250=



000
FTUS43 KDMX 041728
TAFMCW
TAF
KMCW 041728Z 0418/0518 20008KT P6SM FEW040
     FM050100 17005KT P6SM SKC
     FM051500 18013G20KT P6SM FEW250=



000
FTUS43 KDMX 041728
TAFFOD
TAF
KFOD 041728Z 0418/0518 20007KT P6SM FEW040
     FM050100 17004KT P6SM SKC
     FM051500 18013KT P6SM SCT250=



000
FTUS43 KDMX 041728
TAFOTM
TAF
KOTM 041728Z 0418/0518 19006KT P6SM FEW035
     FM050100 15004KT P6SM SKC
     FM051600 16009KT P6SM SKC=



000
FTUS43 KDMX 041728
TAFDSM
TAF
KDSM 041728Z 0418/0518 19007KT P6SM FEW040
     FM050100 15005KT P6SM SKC
     FM051600 17010KT P6SM FEW250=



000
FTUS43 KDMX 041728
TAFFOD
TAF
KFOD 041728Z 0418/0518 20007KT P6SM FEW040
     FM050100 17004KT P6SM SKC
     FM051500 18013KT P6SM SCT250=



000
FTUS43 KDMX 041728
TAFMCW
TAF
KMCW 041728Z 0418/0518 20008KT P6SM FEW040
     FM050100 17005KT P6SM SKC
     FM051500 18013G20KT P6SM FEW250=



000
FTUS43 KDMX 041247 AAA
TAFOTM
TAF AMD
KOTM 041247Z 0413/0512 VRB04KT P6SM SKC
     FM041800 19006KT P6SM SCT035
     FM050100 15004KT P6SM SCT035=



000
FTUS43 KDMX 041247 AAA
TAFOTM
TAF AMD
KOTM 041247Z 0413/0512 VRB04KT P6SM SKC
     FM041800 19006KT P6SM SCT035
     FM050100 15004KT P6SM SCT035=



000
FTUS43 KDMX 041247 AAA
TAFOTM
TAF AMD
KOTM 041247Z 0413/0512 VRB04KT P6SM SKC
     FM041800 19006KT P6SM SCT035
     FM050100 15004KT P6SM SCT035=



000
FTUS43 KDMX 041247 AAA
TAFOTM
TAF AMD
KOTM 041247Z 0413/0512 VRB04KT P6SM SKC
     FM041800 19006KT P6SM SCT035
     FM050100 15004KT P6SM SCT035=



000
FTUS43 KDMX 041122
TAFALO
TAF
KALO 041122Z 0412/0512 VRB04KT P6SM SKC
     FM041700 19007KT P6SM SCT040
     FM050100 16004KT P6SM SKC=



000
FTUS43 KDMX 041122
TAFMCW
TAF
KMCW 041122Z 0412/0512 VRB05KT P6SM SKC
     FM041700 20008KT P6SM SCT040
     FM050100 17005KT P6SM SKC=



000
FTUS43 KDMX 041122
TAFDSM
TAF
KDSM 041122Z 0412/0512 VRB04KT P6SM SKC
     FM041800 19007KT P6SM SCT040
     FM050100 15005KT P6SM SKC=



000
FTUS43 KDMX 041122
TAFOTM
TAF
KOTM 041122Z 0412/0512 VRB04KT P6SM SKC
      TEMPO 0412/0413 5SM BR
     FM041800 19006KT P6SM SCT035
     FM050100 15004KT P6SM SCT035=



000
FTUS43 KDMX 041122
TAFMCW
TAF
KMCW 041122Z 0412/0512 VRB05KT P6SM SKC
     FM041700 20008KT P6SM SCT040
     FM050100 17005KT P6SM SKC=



000
FTUS43 KDMX 041122
TAFDSM
TAF
KDSM 041122Z 0412/0512 VRB04KT P6SM SKC
     FM041800 19007KT P6SM SCT040
     FM050100 15005KT P6SM SKC=



000
FTUS43 KDMX 041122
TAFOTM
TAF
KOTM 041122Z 0412/0512 VRB04KT P6SM SKC
      TEMPO 0412/0413 5SM BR
     FM041800 19006KT P6SM SCT035
     FM050100 15004KT P6SM SCT035=



000
FTUS43 KDMX 041122
TAFALO
TAF
KALO 041122Z 0412/0512 VRB04KT P6SM SKC
     FM041700 19007KT P6SM SCT040
     FM050100 16004KT P6SM SKC=



000
FTUS43 KDMX 041122
TAFFOD
TAF
KFOD 041122Z 0412/0512 VRB04KT P6SM SKC
     FM041800 20007KT P6SM FEW040
     FM050100 16004KT P6SM SKC=



000
FTUS43 KDMX 041122
TAFFOD
TAF
KFOD 041122Z 0412/0512 VRB04KT P6SM SKC
     FM041800 20007KT P6SM FEW040
     FM050100 16004KT P6SM SKC=



000
FTUS43 KDMX 041024 AAA
TAFOTM
TAF AMD
KOTM 041024Z 0410/0506 VRB04KT 5SM BR SKC
      TEMPO 0410/0413 1SM BR
     FM041700 19007KT P6SM SCT035=



000
FTUS43 KDMX 041024 AAA
TAFOTM
TAF AMD
KOTM 041024Z 0410/0506 VRB04KT 5SM BR SKC
      TEMPO 0410/0413 1SM BR
     FM041700 19007KT P6SM SCT035=



000
FTUS43 KDMX 040520
TAFFOD
TAF
KFOD 040520Z 0406/0506 VRB04KT P6SM SKC
     FM041800 18009KT P6SM FEW040=



000
FTUS43 KDMX 040520
TAFMCW
TAF
KMCW 040520Z 0406/0506 VRB04KT P6SM SKC
     FM041700 21008KT P6SM SCT040=



000
FTUS43 KDMX 040520
TAFOTM
TAF
KOTM 040520Z 0406/0506 VRB04KT P6SM SKC
     FM041700 19007KT P6SM SCT035=



000
FTUS43 KDMX 040520
TAFDSM
TAF
KDSM 040520Z 0406/0506 21006KT P6SM SKC=



000
FTUS43 KDMX 040520
TAFOTM
TAF
KOTM 040520Z 0406/0506 VRB04KT P6SM SKC
     FM041700 19007KT P6SM SCT035=



000
FTUS43 KDMX 040520
TAFDSM
TAF
KDSM 040520Z 0406/0506 21006KT P6SM SKC=



000
FTUS43 KDMX 040520
TAFMCW
TAF
KMCW 040520Z 0406/0506 VRB04KT P6SM SKC
     FM041700 21008KT P6SM SCT040=



000
FTUS43 KDMX 040520
TAFALO
TAF
KALO 040520Z 0406/0506 VRB04KT P6SM SKC
     FM041700 20007KT P6SM SCT035=



000
FTUS43 KDMX 040520
TAFFOD
TAF
KFOD 040520Z 0406/0506 VRB04KT P6SM SKC
     FM041800 18009KT P6SM FEW040=



000
FTUS43 KDMX 040520
TAFALO
TAF
KALO 040520Z 0406/0506 VRB04KT P6SM SKC
     FM041700 20007KT P6SM SCT035=



    US Dept of Commerce
    National Oceanic and Atmospheric Administration
    National Weather Service
    1325 East West Highway
    Silver Spring, MD 20910
    Page Author: NWS Internet Services Team
Disclaimer
Information Quality
Credits
Glossary
Privacy Policy
Freedom of Information Act (FOIA)
About Us
Career Opportunities